VTS35 PAED-PASV
Flight info
| Callsign | VTS35 |
|---|---|
| Flight time | 0h 56m |
| Altitude | 10000 |
| Route | YONEK T269 SQA |
| Aircraft | DC6/L-SDE1FGHIJ1RWXY/S |
Departure
| Time | 2026-04-27 11:57 |
|---|---|
| Airport | Elmendorf Air Force Base (PAED) |
Arrival
| Time | 2026-04-27 12:54 |
|---|---|
| Airport | Sparrevohn LRRS Airport (PASV) |
| Time | Latitude | Longitude | Altitude | Speed | Heading |
|---|---|---|---|---|---|
| 2026-04-27 11:20 | 61.25479 | -149.82617 | 195 ft | 0 kts | 259° |
| 2026-04-27 11:27 | 61.25479 | -149.82616 | 195 ft | 0 kts | 259° |
| 2026-04-27 11:36 | 61.25479 | -149.82615 | 195 ft | 0 kts | 259° |
| 2026-04-27 11:49 | 61.25478 | -149.82651 | 206 ft | 4 kts | 285° |
| 2026-04-27 11:49 | 61.25503 | -149.82693 | 195 ft | 6 kts | 331° |
| 2026-04-27 11:49 | 61.25524 | -149.82726 | 195 ft | 5 kts | 303° |
| 2026-04-27 11:49 | 61.25521 | -149.82801 | 207 ft | 7 kts | 240° |
| 2026-04-27 11:50 | 61.25487 | -149.82909 | 194 ft | 11 kts | 232° |
| 2026-04-27 11:50 | 61.25442 | -149.83033 | 208 ft | 11 kts | 226° |
| 2026-04-27 11:50 | 61.25388 | -149.83129 | 207 ft | 10 kts | 218° |
| 2026-04-27 11:50 | 61.25332 | -149.83200 | 194 ft | 9 kts | 213° |
| 2026-04-27 11:51 | 61.25283 | -149.83273 | 199 ft | 8 kts | 219° |
| 2026-04-27 11:51 | 61.25241 | -149.83348 | 198 ft | 8 kts | 214° |
| 2026-04-27 11:51 | 61.25146 | -149.83524 | 190 ft | 10 kts | 247° |
| 2026-04-27 11:52 | 61.25138 | -149.83680 | 189 ft | 11 kts | 263° |
| 2026-04-27 11:52 | 61.25128 | -149.83852 | 199 ft | 13 kts | 262° |
| 2026-04-27 11:52 | 61.25113 | -149.84043 | 187 ft | 14 kts | 259° |
| 2026-04-27 11:52 | 61.25095 | -149.84250 | 192 ft | 15 kts | 259° |
| 2026-04-27 11:53 | 61.25061 | -149.84409 | 197 ft | 10 kts | 214° |
| 2026-04-27 11:53 | 61.24993 | -149.84444 | 191 ft | 11 kts | 179° |
| 2026-04-27 11:53 | 61.24922 | -149.84403 | 191 ft | 11 kts | 156° |
| 2026-04-27 11:53 | 61.24872 | -149.84311 | 187 ft | 8 kts | 93° |
| 2026-04-27 11:54 | 61.24873 | -149.84291 | 187 ft | 0 kts | 80° |
| 2026-04-27 11:54 | 61.24883 | -149.84163 | 196 ft | 26 kts | 79° |
| 2026-04-27 11:54 | 61.24954 | -149.83488 | 194 ft | 70 kts | 82° |
| 2026-04-27 11:55 | 61.25052 | -149.82220 | 197 ft | 107 kts | 82° |
| 2026-04-27 11:55 | 61.25208 | -149.80526 | 241 ft | 129 kts | 81° |
| 2026-04-27 11:55 | 61.25327 | -149.78608 | 337 ft | 137 kts | 80° |
| 2026-04-27 11:55 | 61.25444 | -149.76605 | 429 ft | 144 kts | 80° |
| 2026-04-27 11:56 | 61.25649 | -149.74507 | 531 ft | 153 kts | 66° |
| 2026-04-27 11:56 | 61.26256 | -149.72626 | 582 ft | 161 kts | 44° |
| 2026-04-27 11:56 | 61.27222 | -149.71437 | 631 ft | 170 kts | 13° |
| 2026-04-27 11:56 | 61.28405 | -149.71784 | 744 ft | 177 kts | 336° |
| 2026-04-27 11:57 | 61.29247 | -149.73686 | 771 ft | 188 kts | 293° |
| 2026-04-27 11:57 | 61.29532 | -149.76352 | 881 ft | 191 kts | 282° |
| 2026-04-27 11:57 | 61.29793 | -149.79080 | 1011 ft | 193 kts | 282° |
| 2026-04-27 11:57 | 61.30084 | -149.81748 | 1287 ft | 186 kts | 282° |
| 2026-04-27 11:58 | 61.30334 | -149.84404 | 1408 ft | 185 kts | 269° |
| 2026-04-27 11:58 | 61.30027 | -149.86987 | 1472 ft | 191 kts | 241° |
| 2026-04-27 11:58 | 61.29070 | -149.88903 | 1579 ft | 193 kts | 215° |
| 2026-04-27 11:58 | 61.27936 | -149.90575 | 1507 ft | 206 kts | 215° |
| 2026-04-27 11:59 | 61.26768 | -149.92213 | 1793 ft | 196 kts | 213° |
| 2026-04-27 11:59 | 61.25644 | -149.93715 | 2039 ft | 193 kts | 212° |
| 2026-04-27 11:59 | 61.24504 | -149.95343 | 1957 ft | 205 kts | 216° |
| 2026-04-27 11:59 | 61.23420 | -149.97243 | 2133 ft | 201 kts | 229° |
| 2026-04-27 12:00 | 61.22783 | -149.99830 | 2216 ft | 205 kts | 254° |
| 2026-04-27 12:00 | 61.22698 | -150.02785 | 2318 ft | 205 kts | 274° |
| 2026-04-27 12:00 | 61.22848 | -150.05679 | 2583 ft | 198 kts | 277° |
| 2026-04-27 12:00 | 61.23028 | -150.08539 | 2673 ft | 202 kts | 277° |
| 2026-04-27 12:01 | 61.23187 | -150.11465 | 2750 ft | 205 kts | 275° |
| 2026-04-27 12:01 | 61.23300 | -150.14407 | 2904 ft | 203 kts | 274° |
| 2026-04-27 12:01 | 61.23373 | -150.17333 | 3002 ft | 204 kts | 272° |
| 2026-04-27 12:01 | 61.23371 | -150.20289 | 3033 ft | 207 kts | 261° |
| 2026-04-27 12:02 | 61.23007 | -150.23189 | 3115 ft | 207 kts | 255° |
| 2026-04-27 12:02 | 61.22774 | -150.26134 | 3213 ft | 208 kts | 264° |
| 2026-04-27 12:02 | 61.22646 | -150.29137 | 3349 ft | 209 kts | 265° |
| 2026-04-27 12:02 | 61.22501 | -150.32119 | 3524 ft | 206 kts | 263° |
| 2026-04-27 12:03 | 61.22337 | -150.35068 | 3685 ft | 205 kts | 263° |
| 2026-04-27 12:03 | 61.22180 | -150.37986 | 3832 ft | 203 kts | 263° |
| 2026-04-27 12:03 | 61.22026 | -150.40897 | 3975 ft | 203 kts | 263° |
| 2026-04-27 12:03 | 61.21864 | -150.43813 | 4118 ft | 203 kts | 263° |
| 2026-04-27 12:04 | 61.21706 | -150.46724 | 4267 ft | 204 kts | 263° |
| 2026-04-27 12:04 | 61.21548 | -150.49659 | 4428 ft | 205 kts | 263° |
| 2026-04-27 12:04 | 61.21385 | -150.52607 | 4589 ft | 206 kts | 263° |
| 2026-04-27 12:04 | 61.21225 | -150.55549 | 4740 ft | 206 kts | 263° |
| 2026-04-27 12:05 | 61.21062 | -150.58494 | 4883 ft | 206 kts | 262° |
| 2026-04-27 12:05 | 61.20897 | -150.61446 | 5030 ft | 206 kts | 262° |
| 2026-04-27 12:05 | 61.20734 | -150.64399 | 5174 ft | 206 kts | 262° |
| 2026-04-27 12:05 | 61.20570 | -150.67348 | 5313 ft | 206 kts | 262° |
| 2026-04-27 12:06 | 61.20405 | -150.70292 | 5451 ft | 206 kts | 262° |
| 2026-04-27 12:06 | 61.20238 | -150.73235 | 5585 ft | 205 kts | 262° |
| 2026-04-27 12:06 | 61.20074 | -150.76172 | 5716 ft | 205 kts | 262° |
| 2026-04-27 12:06 | 61.19908 | -150.79102 | 5834 ft | 204 kts | 261° |
| 2026-04-27 12:07 | 61.19738 | -150.82038 | 5948 ft | 205 kts | 261° |
| 2026-04-27 12:07 | 61.19574 | -150.84976 | 6076 ft | 205 kts | 261° |
| 2026-04-27 12:07 | 61.19403 | -150.87913 | 6201 ft | 205 kts | 261° |
| 2026-04-27 12:07 | 61.19235 | -150.90844 | 6320 ft | 205 kts | 261° |
| 2026-04-27 12:08 | 61.19065 | -150.93772 | 6436 ft | 205 kts | 261° |
| 2026-04-27 12:08 | 61.18895 | -150.96693 | 6556 ft | 202 kts | 261° |
| 2026-04-27 12:08 | 61.18727 | -150.99584 | 6683 ft | 201 kts | 260° |
| 2026-04-27 12:08 | 61.18560 | -151.02448 | 6809 ft | 200 kts | 261° |
| 2026-04-27 12:09 | 61.18395 | -151.05290 | 6930 ft | 197 kts | 261° |
| 2026-04-27 12:09 | 61.18227 | -151.08101 | 7064 ft | 197 kts | 260° |
| 2026-04-27 12:09 | 61.18061 | -151.10921 | 7210 ft | 197 kts | 260° |
| 2026-04-27 12:09 | 61.17891 | -151.13745 | 7362 ft | 197 kts | 260° |
| 2026-04-27 12:10 | 61.17723 | -151.16562 | 7504 ft | 197 kts | 260° |
| 2026-04-27 12:10 | 61.17554 | -151.19368 | 7654 ft | 196 kts | 260° |
| 2026-04-27 12:10 | 61.17390 | -151.22147 | 7778 ft | 197 kts | 260° |
| 2026-04-27 12:10 | 61.17289 | -151.24978 | 7915 ft | 198 kts | 268° |
| 2026-04-27 12:11 | 61.17313 | -151.27832 | 8041 ft | 198 kts | 267° |
| 2026-04-27 12:11 | 61.17300 | -151.30682 | 8183 ft | 198 kts | 266° |
| 2026-04-27 12:11 | 61.17293 | -151.33537 | 8331 ft | 199 kts | 267° |
| 2026-04-27 12:11 | 61.17289 | -151.36402 | 8466 ft | 199 kts | 266° |
| 2026-04-27 12:12 | 61.17287 | -151.39283 | 8604 ft | 200 kts | 267° |
| 2026-04-27 12:12 | 61.17283 | -151.42161 | 8740 ft | 200 kts | 266° |
| 2026-04-27 12:12 | 61.17271 | -151.45052 | 8848 ft | 202 kts | 266° |
| 2026-04-27 12:12 | 61.17263 | -151.47984 | 8940 ft | 205 kts | 266° |
| 2026-04-27 12:13 | 61.17256 | -151.50964 | 9036 ft | 208 kts | 266° |
| 2026-04-27 12:13 | 61.17251 | -151.53985 | 9110 ft | 212 kts | 266° |
| 2026-04-27 12:13 | 61.17241 | -151.57055 | 9203 ft | 214 kts | 266° |
| 2026-04-27 12:13 | 61.17231 | -151.60152 | 9308 ft | 216 kts | 266° |
| 2026-04-27 12:14 | 61.17219 | -151.63265 | 9410 ft | 217 kts | 266° |
| 2026-04-27 12:14 | 61.17210 | -151.66401 | 9521 ft | 218 kts | 266° |
| 2026-04-27 12:14 | 61.17197 | -151.69548 | 9639 ft | 219 kts | 265° |
| 2026-04-27 12:14 | 61.17179 | -151.72698 | 9764 ft | 219 kts | 265° |
| 2026-04-27 12:15 | 61.17169 | -151.75932 | 9818 ft | 224 kts | 266° |
| 2026-04-27 12:15 | 61.17156 | -151.79173 | 9883 ft | 226 kts | 265° |
| 2026-04-27 12:15 | 61.17139 | -151.82393 | 9949 ft | 228 kts | 265° |
| 2026-04-27 12:15 | 61.17120 | -151.85689 | 9989 ft | 230 kts | 265° |
| 2026-04-27 12:16 | 61.17101 | -151.89024 | 9988 ft | 233 kts | 265° |
| 2026-04-27 12:16 | 61.17080 | -151.92391 | 9987 ft | 234 kts | 265° |
| 2026-04-27 12:16 | 61.17069 | -151.95775 | 9988 ft | 235 kts | 265° |
| 2026-04-27 12:16 | 61.17045 | -151.99156 | 9989 ft | 234 kts | 265° |
| 2026-04-27 12:17 | 61.17023 | -152.02531 | 9982 ft | 233 kts | 265° |
| 2026-04-27 12:17 | 61.17001 | -152.05856 | 9976 ft | 230 kts | 265° |
| 2026-04-27 12:17 | 61.16980 | -152.09176 | 9965 ft | 229 kts | 265° |
| 2026-04-27 12:17 | 61.16955 | -152.12467 | 9957 ft | 228 kts | 265° |
| 2026-04-27 12:18 | 61.16931 | -152.15735 | 9964 ft | 226 kts | 265° |
| 2026-04-27 12:18 | 61.16909 | -152.18958 | 9967 ft | 223 kts | 265° |
| 2026-04-27 12:18 | 61.16890 | -152.21132 | 9961 ft | 222 kts | 265° |
| 2026-04-27 12:18 | 61.16864 | -152.24286 | 9962 ft | 222 kts | 265° |
| 2026-04-27 12:19 | 61.16837 | -152.27513 | 9963 ft | 221 kts | 265° |
| 2026-04-27 12:19 | 61.16813 | -152.30692 | 9958 ft | 220 kts | 265° |
| 2026-04-27 12:19 | 61.16782 | -152.33855 | 9950 ft | 219 kts | 265° |
| 2026-04-27 12:19 | 61.16756 | -152.36999 | 9953 ft | 217 kts | 265° |
| 2026-04-27 12:20 | 61.16723 | -152.40121 | 9959 ft | 217 kts | 265° |
| 2026-04-27 12:20 | 61.16697 | -152.43245 | 9963 ft | 215 kts | 265° |
| 2026-04-27 12:20 | 61.16668 | -152.46316 | 9957 ft | 216 kts | 264° |
| 2026-04-27 12:20 | 61.16640 | -152.49456 | 9942 ft | 212 kts | 268° |
| 2026-04-27 12:21 | 61.16637 | -152.52447 | 9952 ft | 211 kts | 263° |
| 2026-04-27 12:21 | 61.16558 | -152.55497 | 9948 ft | 212 kts | 264° |
| 2026-04-27 12:21 | 61.16529 | -152.58556 | 9953 ft | 213 kts | 265° |
| 2026-04-27 12:21 | 61.16510 | -152.61617 | 9957 ft | 212 kts | 265° |
| 2026-04-27 12:22 | 61.16477 | -152.64671 | 9961 ft | 213 kts | 264° |
| 2026-04-27 12:22 | 61.16442 | -152.67752 | 9955 ft | 213 kts | 264° |
| 2026-04-27 12:22 | 61.16406 | -152.70810 | 9944 ft | 212 kts | 265° |
| 2026-04-27 12:22 | 61.16375 | -152.73853 | 9938 ft | 211 kts | 264° |
| 2026-04-27 12:23 | 61.16336 | -152.76897 | 9937 ft | 211 kts | 265° |
| 2026-04-27 12:23 | 61.16299 | -152.79937 | 9938 ft | 211 kts | 264° |
| 2026-04-27 12:23 | 61.16258 | -152.82975 | 9934 ft | 211 kts | 264° |
| 2026-04-27 12:23 | 61.16221 | -152.86030 | 9922 ft | 213 kts | 264° |
| 2026-04-27 12:24 | 61.16183 | -152.89101 | 9922 ft | 213 kts | 264° |
| 2026-04-27 12:24 | 61.16144 | -152.92180 | 9924 ft | 214 kts | 264° |
| 2026-04-27 12:24 | 61.16102 | -152.95257 | 9921 ft | 214 kts | 264° |
| 2026-04-27 12:24 | 61.16062 | -152.98351 | 9922 ft | 215 kts | 265° |
| 2026-04-27 12:25 | 61.16016 | -153.01452 | 9911 ft | 215 kts | 264° |
| 2026-04-27 12:25 | 61.15976 | -153.04532 | 9897 ft | 213 kts | 265° |
| 2026-04-27 12:25 | 61.15936 | -153.07569 | 9902 ft | 210 kts | 264° |
| 2026-04-27 12:25 | 61.15889 | -153.10591 | 9899 ft | 210 kts | 264° |
| 2026-04-27 12:26 | 61.15845 | -153.13599 | 9899 ft | 209 kts | 264° |
| 2026-04-27 12:26 | 61.15801 | -153.16609 | 9898 ft | 209 kts | 265° |
| 2026-04-27 12:26 | 61.15752 | -153.19596 | 9901 ft | 205 kts | 264° |
| 2026-04-27 12:26 | 61.15706 | -153.22560 | 9897 ft | 207 kts | 265° |
| 2026-04-27 12:27 | 61.15671 | -153.25549 | 9906 ft | 208 kts | 264° |
| 2026-04-27 12:27 | 61.15622 | -153.28548 | 9900 ft | 208 kts | 264° |
| 2026-04-27 12:27 | 61.15572 | -153.31509 | 9898 ft | 206 kts | 264° |
| 2026-04-27 12:27 | 61.15519 | -153.34494 | 9897 ft | 209 kts | 264° |
| 2026-04-27 12:28 | 61.15473 | -153.37504 | 9898 ft | 209 kts | 264° |
| 2026-04-27 12:28 | 61.15417 | -153.40539 | 9891 ft | 213 kts | 265° |
| 2026-04-27 12:28 | 61.15374 | -153.43596 | 9894 ft | 212 kts | 265° |
| 2026-04-27 12:28 | 61.15321 | -153.46641 | 9900 ft | 212 kts | 264° |
| 2026-04-27 12:29 | 61.15267 | -153.49710 | 9892 ft | 213 kts | 264° |
| 2026-04-27 12:29 | 61.15211 | -153.52788 | 9897 ft | 215 kts | 264° |
| 2026-04-27 12:29 | 61.15164 | -153.55889 | 9880 ft | 215 kts | 265° |
| 2026-04-27 12:29 | 61.15105 | -153.58969 | 9886 ft | 214 kts | 264° |
| 2026-04-27 12:30 | 61.15044 | -153.62053 | 9891 ft | 214 kts | 265° |
| 2026-04-27 12:30 | 61.14988 | -153.65139 | 9873 ft | 215 kts | 264° |
| 2026-04-27 12:30 | 61.14933 | -153.68232 | 9884 ft | 216 kts | 264° |
| 2026-04-27 12:30 | 61.14874 | -153.71341 | 9886 ft | 216 kts | 264° |
| 2026-04-27 12:31 | 61.14814 | -153.74458 | 9880 ft | 217 kts | 264° |
| 2026-04-27 12:31 | 61.14754 | -153.77581 | 9886 ft | 217 kts | 264° |
| 2026-04-27 12:31 | 61.14693 | -153.80714 | 9893 ft | 219 kts | 264° |
| 2026-04-27 12:31 | 61.14628 | -153.83867 | 9885 ft | 218 kts | 264° |
| 2026-04-27 12:32 | 61.14567 | -153.86965 | 9878 ft | 218 kts | 265° |
| 2026-04-27 12:32 | 61.14505 | -153.90108 | 9876 ft | 218 kts | 264° |
| 2026-04-27 12:32 | 61.14441 | -153.93241 | 9875 ft | 218 kts | 264° |
| 2026-04-27 12:32 | 61.14374 | -153.96373 | 9878 ft | 218 kts | 264° |
| 2026-04-27 12:33 | 61.14313 | -153.99501 | 9873 ft | 218 kts | 264° |
| 2026-04-27 12:33 | 61.14243 | -154.02622 | 9873 ft | 217 kts | 264° |
| 2026-04-27 12:33 | 61.14181 | -154.05729 | 9868 ft | 216 kts | 264° |
| 2026-04-27 12:33 | 61.14107 | -154.08851 | 9869 ft | 217 kts | 264° |
| 2026-04-27 12:34 | 61.14042 | -154.11978 | 9873 ft | 218 kts | 264° |
| 2026-04-27 12:34 | 61.13975 | -154.15118 | 9866 ft | 217 kts | 264° |
| 2026-04-27 12:34 | 61.13902 | -154.18248 | 9864 ft | 217 kts | 264° |
| 2026-04-27 12:34 | 61.13831 | -154.21372 | 9870 ft | 217 kts | 264° |
| 2026-04-27 12:35 | 61.13763 | -154.24496 | 9868 ft | 217 kts | 264° |
| 2026-04-27 12:35 | 61.13685 | -154.27597 | 9862 ft | 215 kts | 264° |
| 2026-04-27 12:35 | 61.13615 | -154.30683 | 9853 ft | 214 kts | 264° |
| 2026-04-27 12:35 | 61.13548 | -154.33738 | 9835 ft | 213 kts | 264° |
| 2026-04-27 12:36 | 61.13477 | -154.36786 | 9810 ft | 212 kts | 264° |
| 2026-04-27 12:36 | 61.13402 | -154.39826 | 9804 ft | 211 kts | 264° |
| 2026-04-27 12:36 | 61.13325 | -154.42831 | 9803 ft | 209 kts | 264° |
| 2026-04-27 12:36 | 61.13256 | -154.45823 | 9800 ft | 208 kts | 263° |
| 2026-04-27 12:37 | 61.13183 | -154.48801 | 9810 ft | 206 kts | 263° |
| 2026-04-27 12:37 | 61.13106 | -154.51752 | 9810 ft | 204 kts | 263° |
| 2026-04-27 12:37 | 61.13035 | -154.54681 | 9797 ft | 203 kts | 263° |
| 2026-04-27 12:37 | 61.12965 | -154.57580 | 9799 ft | 201 kts | 263° |
| 2026-04-27 12:38 | 61.12890 | -154.60443 | 9806 ft | 199 kts | 263° |
| 2026-04-27 12:38 | 61.12812 | -154.63280 | 9800 ft | 197 kts | 264° |
| 2026-04-27 12:38 | 61.12749 | -154.66089 | 9806 ft | 195 kts | 263° |
| 2026-04-27 12:38 | 61.12669 | -154.68860 | 9798 ft | 192 kts | 262° |
| 2026-04-27 12:39 | 61.12595 | -154.71645 | 9607 ft | 199 kts | 263° |
| 2026-04-27 12:39 | 61.12517 | -154.74554 | 9423 ft | 206 kts | 263° |
| 2026-04-27 12:39 | 61.12438 | -154.77553 | 9261 ft | 211 kts | 264° |
| 2026-04-27 12:39 | 61.12358 | -154.80619 | 9105 ft | 215 kts | 264° |
| 2026-04-27 12:40 | 61.12274 | -154.83732 | 8964 ft | 218 kts | 265° |
| 2026-04-27 12:40 | 61.12186 | -154.86885 | 8827 ft | 221 kts | 264° |
| 2026-04-27 12:40 | 61.12095 | -154.90080 | 8702 ft | 222 kts | 264° |
| 2026-04-27 12:40 | 61.12009 | -154.93277 | 8562 ft | 223 kts | 265° |
| 2026-04-27 12:41 | 61.11918 | -154.96517 | 8357 ft | 227 kts | 264° |
| 2026-04-27 12:41 | 61.11824 | -154.99799 | 8165 ft | 229 kts | 264° |
| 2026-04-27 12:41 | 61.11729 | -155.03111 | 7989 ft | 231 kts | 264° |
| 2026-04-27 12:41 | 61.11633 | -155.06436 | 7821 ft | 232 kts | 264° |
| 2026-04-27 12:42 | 61.11534 | -155.09766 | 7629 ft | 232 kts | 264° |
| 2026-04-27 12:42 | 61.11437 | -155.13103 | 7442 ft | 232 kts | 264° |
| 2026-04-27 12:42 | 61.11341 | -155.16430 | 7266 ft | 233 kts | 265° |
| 2026-04-27 12:42 | 61.11242 | -155.19772 | 7108 ft | 233 kts | 265° |
| 2026-04-27 12:43 | 61.11139 | -155.23113 | 6940 ft | 232 kts | 264° |
| 2026-04-27 12:43 | 61.11035 | -155.26426 | 6746 ft | 231 kts | 264° |
| 2026-04-27 12:43 | 61.10938 | -155.29735 | 6594 ft | 230 kts | 264° |
| 2026-04-27 12:43 | 61.10838 | -155.33024 | 6403 ft | 228 kts | 265° |
| 2026-04-27 12:44 | 61.10737 | -155.36294 | 6229 ft | 228 kts | 264° |
| 2026-04-27 12:44 | 61.10631 | -155.39543 | 6048 ft | 226 kts | 264° |
| 2026-04-27 12:44 | 61.10529 | -155.42777 | 5883 ft | 225 kts | 265° |
| 2026-04-27 12:44 | 61.10429 | -155.46017 | 5698 ft | 225 kts | 264° |
| 2026-04-27 12:45 | 61.10322 | -155.49249 | 5534 ft | 225 kts | 264° |
| 2026-04-27 12:45 | 61.10225 | -155.52472 | 5353 ft | 225 kts | 264° |
| 2026-04-27 12:45 | 61.10073 | -155.55674 | 5177 ft | 222 kts | 256° |
| 2026-04-27 12:45 | 61.09582 | -155.58683 | 4970 ft | 219 kts | 245° |
| 2026-04-27 12:46 | 61.08635 | -155.61090 | 4765 ft | 216 kts | 214° |
| 2026-04-27 12:46 | 61.07304 | -155.62333 | 4661 ft | 207 kts | 188° |
| 2026-04-27 12:46 | 61.05903 | -155.62464 | 4585 ft | 200 kts | 180° |
| 2026-04-27 12:46 | 61.04511 | -155.62635 | 4456 ft | 200 kts | 181° |
| 2026-04-27 12:47 | 61.03128 | -155.62823 | 4402 ft | 196 kts | 182° |
| 2026-04-27 12:47 | 61.01793 | -155.62996 | 4348 ft | 191 kts | 180° |
| 2026-04-27 12:47 | 61.00474 | -155.63136 | 4298 ft | 187 kts | 181° |
| 2026-04-27 12:47 | 60.99198 | -155.63403 | 4306 ft | 181 kts | 191° |
| 2026-04-27 12:48 | 60.98108 | -155.64544 | 4356 ft | 176 kts | 218° |
| 2026-04-27 12:48 | 60.97353 | -155.66505 | 4326 ft | 175 kts | 233° |
| 2026-04-27 12:48 | 60.96716 | -155.68664 | 4214 ft | 179 kts | 238° |
| 2026-04-27 12:48 | 60.96033 | -155.70761 | 4182 ft | 171 kts | 217° |
| 2026-04-27 12:49 | 60.94967 | -155.71314 | 4081 ft | 160 kts | 160° |
| 2026-04-27 12:49 | 60.94227 | -155.69832 | 4043 ft | 152 kts | 104° |
| 2026-04-27 12:49 | 60.94464 | -155.67808 | 3989 ft | 152 kts | 52° |
| 2026-04-27 12:49 | 60.95175 | -155.66094 | 3820 ft | 162 kts | 50° |
| 2026-04-27 12:50 | 60.95972 | -155.64447 | 3826 ft | 160 kts | 45° |
| 2026-04-27 12:50 | 60.96788 | -155.62958 | 3827 ft | 159 kts | 40° |
| 2026-04-27 12:50 | 60.97711 | -155.61618 | 3763 ft | 162 kts | 27° |
| 2026-04-27 12:50 | 60.98769 | -155.61019 | 3789 ft | 156 kts | 16° |
| 2026-04-27 12:51 | 60.99849 | -155.60449 | 3651 ft | 163 kts | 18° |
| 2026-04-27 12:51 | 61.00919 | -155.59832 | 3643 ft | 156 kts | 17° |
| 2026-04-27 12:51 | 61.01942 | -155.59380 | 3680 ft | 147 kts | 14° |
| 2026-04-27 12:51 | 61.02958 | -155.58921 | 3421 ft | 151 kts | 15° |
| 2026-04-27 12:52 | 61.03956 | -155.58452 | 3230 ft | 142 kts | 9° |
| 2026-04-27 12:52 | 61.04942 | -155.58406 | 2976 ft | 142 kts | 360° |
| 2026-04-27 12:52 | 61.05871 | -155.58217 | 2803 ft | 132 kts | 14° |
| 2026-04-27 12:52 | 61.06783 | -155.57697 | 2409 ft | 140 kts | 14° |
| 2026-04-27 12:53 | 61.08752 | -155.57460 | 1516 ft | 139 kts | 359° |
| 2026-04-27 12:53 | 61.09608 | -155.57476 | 1460 ft | 104 kts | 359° |
| 2026-04-27 12:53 | 61.10219 | -155.57474 | 1562 ft | 64 kts | 360° |
| 2026-04-27 12:54 | 61.10307 | -155.57476 | 1576 ft | 1 kts | 31° |
| 2026-04-27 12:54 | 61.10311 | -155.57474 | 1577 ft | 1 kts | 359° |
| 2026-04-27 12:54 | 61.10317 | -155.57483 | 1577 ft | 2 kts | 294° |
| 2026-04-27 12:54 | 61.10305 | -155.57619 | 1574 ft | 14 kts | 292° |
| 2026-04-27 12:55 | 61.10323 | -155.57645 | 1577 ft | 0 kts | 10° |
| 2026-04-27 12:55 | 61.10328 | -155.57643 | 1578 ft | 2 kts | 13° |
| 2026-04-27 12:55 | 61.10334 | -155.57630 | 1579 ft | 2 kts | 72° |
| 2026-04-27 12:55 | 61.10335 | -155.57599 | 1580 ft | 0 kts | 88° |